Time,TemperatureF,DewpointF,PressureIn,WindDirection,WindDirectionDegrees,WindSpeedMPH,WindSpeedGustMPH,Humidity,HourlyPrecipIn,Conditions,Clouds,dailyrainin,SolarRadiationWatts/m^2,SoftwareType,DateUTC
2013-03-29 00:03:00,38.0,21.0,-100.00,NW,312,0.0,2.0,49,0.00,,,-99.99,0.000000,,2013-03-29 04:03:00,
2013-03-29 00:33:00,36.0,21.0,-100.00,South,171,0.0,2.0,54,0.00,,,-99.99,0.000000,,2013-03-29 04:33:00,
2013-03-29 00:43:00,36.0,21.0,-100.00,South,171,0.0,2.0,54,0.00,,,-99.99,0.000000,,2013-03-29 04:43:00,
2013-03-29 00:53:00,36.0,21.0,-100.00,South,171,0.0,2.0,54,0.00,,,-99.99,0.000000,,2013-03-29 04:53:00,
2013-03-29 01:03:00,36.0,21.0,-100.00,South,171,0.0,2.0,54,0.00,,,-99.99,0.000000,,2013-03-29 05:03:00,
2013-03-29 01:33:00,35.0,21.0,-100.00,SE,144,2.0,3.0,56,0.00,,,-99.99,0.000000,,2013-03-29 05:33:00,
2013-03-29 01:43:00,35.0,21.0,-100.00,SE,144,2.0,3.0,56,0.00,,,-99.99,0.000000,,2013-03-29 05:43:00,
2013-03-29 01:52:00,35.0,21.0,-100.00,SE,144,2.0,3.0,56,0.00,,,-99.99,0.000000,,2013-03-29 05:52:00,
2013-03-29 02:03:00,35.0,21.0,-100.00,SE,144,2.0,3.0,56,0.00,,,-99.99,0.000000,,2013-03-29 06:03:00,
2013-03-29 02:32:00,32.0,20.0,-100.00,SSE,156,3.0,4.0,61,0.00,,,-99.99,0.000000,,2013-03-29 06:32:00,
2013-03-29 02:42:00,32.0,20.0,-100.00,SSE,156,3.0,4.0,61,0.00,,,-99.99,0.000000,,2013-03-29 06:42:00,
2013-03-29 02:52:00,32.0,20.0,-100.00,SSE,156,3.0,4.0,61,0.00,,,-99.99,0.000000,,2013-03-29 06:52:00,
2013-03-29 03:03:00,32.0,20.0,-100.00,SSE,156,3.0,4.0,61,0.00,,,-99.99,0.000000,,2013-03-29 07:03:00,
2013-03-29 03:32:00,30.0,24.0,-100.00,SSE,156,2.0,4.0,79,0.00,,,-99.99,0.000000,,2013-03-29 07:32:00,
2013-03-29 03:42:00,30.0,24.0,-100.00,SSE,156,2.0,4.0,79,0.00,,,-99.99,0.000000,,2013-03-29 07:42:00,
2013-03-29 03:52:00,30.0,24.0,-100.00,SSE,156,2.0,4.0,79,0.00,,,-99.99,0.000000,,2013-03-29 07:52:00,
2013-03-29 04:02:00,30.0,24.0,-100.00,SSE,156,2.0,4.0,79,0.00,,,-99.99,0.000000,,2013-03-29 08:02:00,
2013-03-29 04:32:00,29.0,25.0,-100.00,ESE,120,2.0,4.0,85,0.00,,,-99.99,0.000000,,2013-03-29 08:32:00,
2013-03-29 04:42:00,29.0,25.0,-100.00,ESE,120,2.0,4.0,85,0.00,,,-99.99,0.000000,,2013-03-29 08:42:00,
2013-03-29 04:53:00,29.0,25.0,-100.00,ESE,120,2.0,4.0,85,0.00,,,-99.99,0.000000,,2013-03-29 08:53:00,
2013-03-29 05:02:00,29.0,25.0,-100.00,ESE,120,2.0,4.0,85,0.00,,,-99.99,0.000000,,2013-03-29 09:02:00,
2013-03-29 05:33:00,28.0,24.0,-100.00,SSE,154,2.0,4.0,86,0.00,,,-99.99,0.000000,,2013-03-29 09:33:00,
2013-03-29 05:43:00,28.0,24.0,-100.00,SSE,154,2.0,4.0,86,0.00,,,-99.99,0.000000,,2013-03-29 09:43:00,
2013-03-29 05:52:00,28.0,24.0,-100.00,SSE,154,2.0,4.0,86,0.00,,,-99.99,0.000000,,2013-03-29 09:52:00,
2013-03-29 06:03:00,28.0,24.0,-100.00,SSE,154,2.0,4.0,86,0.00,,,-99.99,0.000000,,2013-03-29 10:03:00,
2013-03-29 06:33:00,27.0,24.0,-100.00,SE,136,1.0,4.0,90,0.00,,,-99.99,0.000000,,2013-03-29 10:33:00,
2013-03-29 06:42:00,27.0,24.0,-100.00,SE,136,1.0,4.0,90,0.00,,,-99.99,0.000000,,2013-03-29 10:42:00,
2013-03-29 06:53:00,27.0,24.0,-100.00,SE,136,1.0,4.0,90,0.00,,,-99.99,0.000000,,2013-03-29 10:53:00,
2013-03-29 07:03:00,27.0,24.0,-100.00,SE,136,1.0,4.0,90,0.00,,,-99.99,0.000000,,2013-03-29 11:03:00,
2013-03-29 07:33:00,28.0,25.0,-100.00,SSE,153,2.0,4.0,87,0.00,,,-99.99,0.000000,,2013-03-29 11:33:00,
2013-03-29 07:43:00,28.0,25.0,-100.00,SSE,153,2.0,4.0,87,0.00,,,-99.99,0.000000,,2013-03-29 11:43:00,
2013-03-29 07:53:00,28.0,25.0,-100.00,SSE,153,2.0,4.0,87,0.00,,,-99.99,0.000000,,2013-03-29 11:53:00,
2013-03-29 08:03:00,28.0,25.0,-100.00,SSE,153,2.0,4.0,87,0.00,,,-99.99,0.000000,,2013-03-29 12:03:00,
2013-03-29 08:33:00,28.0,24.0,-100.00,SE,128,1.0,4.0,86,0.00,,,-99.99,14.000000,,2013-03-29 12:33:00,
2013-03-29 08:43:00,28.0,24.0,-100.00,SE,128,1.0,4.0,86,0.00,,,-99.99,14.000000,,2013-03-29 12:43:00,
2013-03-29 08:53:00,28.0,24.0,-100.00,SE,128,1.0,4.0,86,0.00,,,-99.99,14.000000,,2013-03-29 12:53:00,
2013-03-29 09:03:00,28.0,24.0,-100.00,SE,128,1.0,4.0,86,0.00,,,-99.99,14.000000,,2013-03-29 13:03:00,
2013-03-29 09:33:00,31.0,27.0,-100.00,SSE,166,3.0,4.0,84,0.00,,,-99.99,83.000000,,2013-03-29 13:33:00,
2013-03-29 09:43:00,31.0,27.0,-100.00,SSE,166,3.0,4.0,84,0.00,,,-99.99,83.000000,,2013-03-29 13:43:00,
2013-03-29 09:53:00,31.0,27.0,-100.00,SSE,166,3.0,4.0,84,0.00,,,-99.99,83.000000,,2013-03-29 13:53:00,
2013-03-29 10:03:00,31.0,27.0,-100.00,SSE,166,3.0,4.0,84,0.00,,,-99.99,83.000000,,2013-03-29 14:03:00,
2013-03-29 10:33:00,36.0,29.0,-100.00,South,187,3.0,5.0,74,0.00,,,-99.99,145.000000,,2013-03-29 14:33:00,
2013-03-29 10:42:00,36.0,29.0,-100.00,South,187,3.0,5.0,74,0.00,,,-99.99,145.000000,,2013-03-29 14:42:00,
2013-03-29 10:53:00,36.0,29.0,-100.00,South,187,3.0,5.0,74,0.00,,,-99.99,145.000000,,2013-03-29 14:53:00,
2013-03-29 11:02:00,36.0,29.0,-100.00,South,187,3.0,5.0,74,0.00,,,-99.99,145.000000,,2013-03-29 15:02:00,
2013-03-29 11:33:00,39.0,27.0,-100.00,SSE,150,3.0,4.0,62,0.00,,,-99.99,136.000000,,2013-03-29 15:33:00,
2013-03-29 11:43:00,39.0,27.0,-100.00,SSE,150,3.0,4.0,62,0.00,,,-99.99,136.000000,,2013-03-29 15:43:00,
2013-03-29 11:53:00,39.0,27.0,-100.00,SSE,150,3.0,4.0,62,0.00,,,-99.99,136.000000,,2013-03-29 15:53:00,
2013-03-29 12:03:00,39.0,27.0,-100.00,SSE,150,3.0,4.0,62,0.00,,,-99.99,136.000000,,2013-03-29 16:03:00,
2013-03-29 12:33:00,41.0,29.0,-100.00,NW,320,2.0,5.0,62,0.00,,,-99.99,154.000000,,2013-03-29 16:33:00,
2013-03-29 12:43:00,41.0,29.0,-100.00,NW,320,2.0,5.0,62,0.00,,,-99.99,154.000000,,2013-03-29 16:43:00,
2013-03-29 12:53:00,41.0,29.0,-100.00,NW,320,2.0,5.0,62,0.00,,,-99.99,154.000000,,2013-03-29 16:53:00,
2013-03-29 13:03:00,41.0,29.0,-100.00,NW,320,2.0,5.0,62,0.00,,,-99.99,154.000000,,2013-03-29 17:03:00,
2013-03-29 13:33:00,51.0,32.0,-100.00,NNE,23,3.0,7.0,48,0.00,,,-99.99,476.000000,,2013-03-29 17:33:00,
2013-03-29 13:43:00,51.0,32.0,-100.00,NNE,23,3.0,7.0,48,0.00,,,-99.99,476.000000,,2013-03-29 17:43:00,
2013-03-29 13:53:00,51.0,32.0,-100.00,NNE,23,3.0,7.0,48,0.00,,,-99.99,476.000000,,2013-03-29 17:53:00,
2013-03-29 14:02:00,51.0,32.0,-100.00,NNE,23,3.0,7.0,48,0.00,,,-99.99,476.000000,,2013-03-29 18:02:00,
2013-03-29 14:33:00,54.0,29.0,-100.00,North,355,4.0,12.0,38,0.00,,,0.00,759.000000,,2013-03-29 18:33:00,
2013-03-29 14:43:00,54.0,29.0,-100.00,North,355,4.0,12.0,38,0.00,,,0.00,759.000000,,2013-03-29 18:43:00,
2013-03-29 14:53:00,54.0,29.0,-100.00,North,355,4.0,12.0,38,0.00,,,0.00,759.000000,,2013-03-29 18:53:00,
2013-03-29 15:03:00,54.0,29.0,-100.00,North,355,4.0,12.0,38,0.00,,,0.00,759.000000,,2013-03-29 19:03:00,
2013-03-29 15:33:00,53.0,26.0,-100.00,NE,55,6.0,12.0,35,0.00,,,0.00,623.000000,,2013-03-29 19:33:00,
2013-03-29 15:43:00,53.0,26.0,-100.00,NE,55,6.0,12.0,35,0.00,,,0.00,623.000000,,2013-03-29 19:43:00,
2013-03-29 15:53:00,53.0,26.0,-100.00,NE,55,6.0,12.0,35,0.00,,,0.00,623.000000,,2013-03-29 19:53:00,
2013-03-29 16:03:00,53.0,26.0,-100.00,NE,55,6.0,12.0,35,0.00,,,0.00,623.000000,,2013-03-29 20:03:00,
2013-03-29 16:33:00,50.0,31.0,-100.00,East,90,4.0,11.0,48,0.00,,,0.00,326.000000,,2013-03-29 20:33:00,
2013-03-29 16:42:00,50.0,31.0,-100.00,East,90,4.0,11.0,48,0.00,,,0.00,326.000000,,2013-03-29 20:42:00,
2013-03-29 16:52:00,50.0,31.0,-100.00,East,90,4.0,11.0,48,0.00,,,0.00,326.000000,,2013-03-29 20:52:00,
2013-03-29 17:02:00,50.0,31.0,-100.00,East,90,4.0,11.0,48,0.00,,,0.00,326.000000,,2013-03-29 21:02:00,
2013-03-29 17:33:00,49.0,33.0,-100.00,East,96,4.0,9.0,54,0.00,,,0.00,150.000000,,2013-03-29 21:33:00,
2013-03-29 17:43:00,49.0,33.0,-100.00,East,96,4.0,9.0,54,0.00,,,0.00,150.000000,,2013-03-29 21:43:00,
2013-03-29 17:53:00,49.0,33.0,-100.00,East,96,4.0,9.0,54,0.00,,,0.00,150.000000,,2013-03-29 21:53:00,
2013-03-29 18:03:00,49.0,33.0,-100.00,East,96,4.0,9.0,54,0.00,,,0.00,150.000000,,2013-03-29 22:03:00,
2013-03-29 18:34:00,50.0,33.0,-100.00,SE,141,4.0,7.0,52,0.00,,,0.00,108.000000,,2013-03-29 22:34:00,
2013-03-29 18:43:00,50.0,33.0,-100.00,SE,141,4.0,7.0,52,0.00,,,0.00,108.000000,,2013-03-29 22:43:00,
2013-03-29 18:54:00,50.0,33.0,-100.00,SE,141,4.0,7.0,52,0.00,,,0.00,108.000000,,2013-03-29 22:54:00,
2013-03-29 19:03:00,50.0,33.0,-100.00,SE,141,4.0,7.0,52,0.00,,,0.00,108.000000,,2013-03-29 23:03:00,
2013-03-29 19:32:00,49.0,33.0,-100.00,East,92,4.0,9.0,54,0.00,,,0.00,88.000000,,2013-03-29 23:32:00,
2013-03-29 19:43:00,49.0,33.0,-100.00,East,92,4.0,9.0,54,0.00,,,0.00,88.000000,,2013-03-29 23:43:00,
2013-03-29 19:53:00,49.0,33.0,-100.00,East,92,4.0,9.0,54,0.00,,,0.00,88.000000,,2013-03-29 23:53:00,
2013-03-29 20:03:00,49.0,33.0,-100.00,East,92,4.0,9.0,54,0.00,,,0.00,88.000000,,2013-03-30 00:03:00,
2013-03-29 20:33:00,47.0,35.0,-100.00,East,99,4.0,8.0,63,0.00,,,0.00,11.000000,,2013-03-30 00:33:00,
2013-03-29 20:43:00,47.0,35.0,-100.00,East,99,4.0,8.0,63,0.00,,,0.00,11.000000,,2013-03-30 00:43:00,
2013-03-29 20:53:00,47.0,35.0,-100.00,East,99,4.0,8.0,63,0.00,,,0.00,11.000000,,2013-03-30 00:53:00,
2013-03-29 21:03:00,47.0,35.0,-100.00,East,99,4.0,8.0,63,0.00,,,0.00,11.000000,,2013-03-30 01:03:00,
2013-03-29 21:33:00,46.0,36.0,-100.00,SE,144,3.0,7.0,68,0.00,,,0.00,0.000000,,2013-03-30 01:33:00,
2013-03-29 21:43:00,46.0,36.0,-100.00,SE,144,3.0,7.0,68,0.00,,,0.00,0.000000,,2013-03-30 01:43:00,
2013-03-29 21:53:00,46.0,36.0,-100.00,SE,144,3.0,7.0,68,0.00,,,0.00,0.000000,,2013-03-30 01:53:00,
2013-03-29 22:03:00,46.0,36.0,-100.00,SE,144,3.0,7.0,68,0.00,,,0.00,0.000000,,2013-03-30 02:03:00,
2013-03-29 22:33:00,46.0,36.0,-100.00,SE,134,3.0,6.0,69,0.00,,,0.00,0.000000,,2013-03-30 02:33:00,
2013-03-29 22:43:00,46.0,36.0,-100.00,SE,134,3.0,6.0,69,0.00,,,0.00,0.000000,,2013-03-30 02:43:00,
2013-03-29 22:53:00,46.0,36.0,-100.00,SE,134,3.0,6.0,69,0.00,,,0.00,0.000000,,2013-03-30 02:53:00,
2013-03-29 23:03:00,46.0,36.0,-100.00,SE,134,3.0,6.0,69,0.00,,,0.00,0.000000,,2013-03-30 03:03:00,
2013-03-29 23:33:00,46.0,36.0,-100.00,SE,128,2.0,6.0,69,0.00,,,0.00,0.000000,,2013-03-30 03:33:00,
2013-03-29 23:43:00,46.0,36.0,-100.00,SE,128,2.0,6.0,69,0.00,,,0.00,0.000000,,2013-03-30 03:43:00,
2013-03-29 23:53:00,46.0,36.0,-100.00,SE,128,2.0,6.0,69,0.00,,,0.00,0.000000,,2013-03-30 03:53:00,